Terminal Aerodrome Forecast
Issued by NWS

Home | Current Version | Previous Version | Text Only | Print | Product List | Glossary On
Versions: 1 2 3 4 5 6 7 8 9 10 11 12 13 14
618
FTUS41 KPBZ 280524
TAFBVI
TAF
KBVI 280524Z 2806/2906 16004KT P6SM SKC
     FM281700 12009G16KT P6SM SCT150
     FM282000 11009KT P6SM BKN035
     FM290000 09006KT P6SM VCSH BKN025
      AMD NOT SKED=

USA.gov is the U.S. government's official web portal to all federal, state and local government web resources and services.